EHEHEHGG

Guest
Details From EHEH - Eindhoven
To EHGG - Eelde
Flight Number -
Tags Generated
Created
Modified
Stats Distance 110 nm / 204 km
Max Altitude 0 ft / 0 m
Waypoints 2
Social Downloads 2
Likes 0
Share VATSIM

Download

Looking for another format? Having issues loading an existing format? Contact us
Advertisement - Login to hide

Notes

Generated

Route

EHEH EHGG

ID Type Via Altitude Latitude Longitude Leg Dist Tot Dist Heading (true) Name
O EHEH APT - 0 ft / 0 m 51.43909˚ 5.36214˚ - 0 nm - -
O EHGG APT - 0 ft / 0 m 53.11738˚ 6.57688˚ 110 nm 110 nm 23° / 24° Eelde

Altitude Profile

Advertisement - Login to hide

EHEH

Details ICAO EHEH (EIN)
Name Eindhoven
Region Netherlands
Timezone Europe/Amsterdam (UTC+2.0)
Stats Elevation 74 ft / 23 m (AMSL)
Location 51.450133° 5.374513°
Runways 1
Magnetic Variation 1.431° E

METAR

EHEH 210555Z AUTO 08003KT 030V110 9999 FEW055 BKN069 OVC076 15/07 Q1017 BLU 07006KT CAVOK

Decode

TAF

TAF TAF EHEH 210543Z 2106/2212 08006KT CAVOK TEMPO 2106/2108 FEW060CB TEMPO 2109/2114 10012G22KT PROB40 TEMPO 2114/2118 FEW060CB BKN070 BECMG 2117/2119 VRB02KT TEMPO 2118/2202 09012KT SCT060CB BKN070 PROB40 TEMPO 2119/2202 VRB12G22KT 3500 TSRAGR BKN050CB

Decode

Departure Runways

ID Width Length Bearing (true) Bearing (mag) Surface Threshold Offset Overrun Length
03 148 ft / 45 m 9,832 ft / 2,997 m 34.92° 33.49° Asphalt 821 ft / 250 m 0 ft / 0 m
21 148 ft / 45 m 9,832 ft / 2,997 m 214.94° 213.51° Asphalt 821 ft / 250 m 0 ft / 0 m

EHGG

Details ICAO EHGG (GRQ)
Name Eelde
Region Netherlands
Timezone Europe/Amsterdam (UTC+2.0)
Stats Elevation 17 ft / 5 m (AMSL)
Location 53.121033° 6.577073°
Runways 2
Magnetic Variation 1.752° E

METAR

EHGG 210555Z AUTO 08007KT 050V110 9999 NCD 14/07 Q1020 NOSIG

Decode

TAF

TAF EHGG 210503Z 2106/2212 08008KT CAVOK BECMG 2109/2111 11015KT BECMG 2117/2120 07006KT BECMG 2209/2212 10011KT

Decode

Destination Runways

ID Width Length Bearing (true) Bearing (mag) Surface Threshold Offset Overrun Length
01 148 ft / 45 m 4,918 ft / 1,499 m 8.73° 6.98° Asphalt 0 ft / 0 m 0 ft / 0 m
05 148 ft / 45 m 8,185 ft / 2,495 m 51.78° 50.03° Asphalt 0 ft / 0 m 98 ft / 30 m
19 148 ft / 45 m 4,918 ft / 1,499 m 188.74° 186.99° Asphalt 0 ft / 0 m 0 ft / 0 m
23 148 ft / 45 m 8,185 ft / 2,495 m 231.81° 230.06° Asphalt 0 ft / 0 m 98 ft / 30 m

Approach Navaids

Runway Type Ident Frequency Range Bearing (true) Bearing (mag) Slope Elevation
23 Localiser GRO 109.90 MHz 18 nm / 33 km 231.79° 230.04° - 17 ft / 5 m (AMSL)
23 Glidescope GRO 109.90 MHz 15 nm / 28 km 232.94° 231.19° 3.00° 17 ft / 5 m (AMSL)
23 DME GRO 109.90 MHz 18 nm / 33 km - - - 17 ft / 5 m (AMSL)

Popular Alternatives